sensor_id;sensor_type;location;lat;lon;timestamp;P1;durP1;ratioP1;P2;durP2;ratioP2
27402;SDS011;14862;49.494;8.530;2023-05-10T00:01:09;2.00;;;1.70;;
27402;SDS011;14862;49.494;8.530;2023-05-10T00:03:35;2.33;;;1.98;;
27402;SDS011;14862;49.494;8.530;2023-05-10T00:06:00;1.92;;;1.70;;
27402;SDS011;14862;49.494;8.530;2023-05-10T00:08:25;2.00;;;1.80;;
27402;SDS011;14862;49.494;8.530;2023-05-10T00:10:50;3.10;;;1.60;;
27402;SDS011;14862;49.494;8.530;2023-05-10T00:13:15;1.70;;;1.60;;
27402;SDS011;14862;49.494;8.530;2023-05-10T00:15:41;2.60;;;1.48;;
27402;SDS011;14862;49.494;8.530;2023-05-10T00:18:06;1.23;;;1.13;;
27402;SDS011;14862;49.494;8.530;2023-05-10T00:20:31;2.13;;;1.83;;
27402;SDS011;14862;49.494;8.530;2023-05-10T00:22:57;5.63;;;2.55;;
27402;SDS011;14862;49.494;8.530;2023-05-10T00:25:22;1.70;;;1.60;;
27402;SDS011;14862;49.494;8.530;2023-05-10T00:27:47;4.35;;;1.65;;
27402;SDS011;14862;49.494;8.530;2023-05-10T00:30:13;1.95;;;1.52;;
27402;SDS011;14862;49.494;8.530;2023-05-10T00:32:38;2.13;;;1.83;;
27402;SDS011;14862;49.494;8.530;2023-05-10T00:35:03;1.70;;;1.60;;
27402;SDS011;14862;49.494;8.530;2023-05-10T00:37:29;4.25;;;1.50;;
27402;SDS011;14862;49.494;8.530;2023-05-10T00:39:54;18.98;;;3.20;;
27402;SDS011;14862;49.494;8.530;2023-05-10T00:42:19;4.93;;;1.90;;
27402;SDS011;14862;49.494;8.530;2023-05-10T00:44:44;1.63;;;1.52;;
27402;SDS011;14862;49.494;8.530;2023-05-10T00:47:11;2.00;;;1.80;;
27402;SDS011;14862;49.494;8.530;2023-05-10T00:49:36;5.30;;;2.00;;
27402;SDS011;14862;49.494;8.530;2023-05-10T00:52:02;2.00;;;1.85;;
27402;SDS011;14862;49.494;8.530;2023-05-10T00:54:28;3.10;;;1.92;;
27402;SDS011;14862;49.494;8.530;2023-05-10T00:56:53;4.10;;;2.20;;
27402;SDS011;14862;49.494;8.530;2023-05-10T00:59:18;5.15;;;2.20;;
27402;SDS011;14862;49.494;8.530;2023-05-10T01:01:47;3.38;;;2.15;;
27402;SDS011;14862;49.494;8.530;2023-05-10T01:04:13;4.15;;;2.08;;
27402;SDS011;14862;49.494;8.530;2023-05-10T01:06:41;2.28;;;2.08;;
27402;SDS011;14862;49.494;8.530;2023-05-10T01:15:12;3.42;;;2.60;;
27402;SDS011;14862;49.494;8.530;2023-05-10T01:17:39;2.40;;;2.20;;
27402;SDS011;14862;49.494;8.530;2023-05-10T01:20:06;5.25;;;2.40;;
27402;SDS011;14862;49.494;8.530;2023-05-10T01:32:36;3.88;;;2.03;;
27402;SDS011;14862;49.494;8.530;2023-05-10T01:43:53;3.20;;;2.58;;
27402;SDS011;14862;49.494;8.530;2023-05-10T01:46:24;2.25;;;1.88;;
27402;SDS011;14862;49.494;8.530;2023-05-10T01:48:52;2.42;;;1.60;;
27402;SDS011;14862;49.494;8.530;2023-05-10T01:51:23;2.05;;;1.83;;
27402;SDS011;14862;49.494;8.530;2023-05-10T01:53:50;3.47;;;2.33;;
27402;SDS011;14862;49.494;8.530;2023-05-10T01:56:16;2.85;;;1.60;;
27402;SDS011;14862;49.494;8.530;2023-05-10T01:58:44;1.83;;;1.50;;
27402;SDS011;14862;49.494;8.530;2023-05-10T02:01:11;2.00;;;1.80;;
27402;SDS011;14862;49.494;8.530;2023-05-10T02:03:37;2.38;;;1.75;;
27402;SDS011;14862;49.494;8.530;2023-05-10T02:06:03;2.40;;;1.80;;
27402;SDS011;14862;49.494;8.530;2023-05-10T02:08:29;2.00;;;1.60;;
27402;SDS011;14862;49.494;8.530;2023-05-10T02:10:55;2.55;;;1.55;;
27402;SDS011;14862;49.494;8.530;2023-05-10T02:13:21;1.88;;;1.70;;
27402;SDS011;14862;49.494;8.530;2023-05-10T02:15:48;2.95;;;1.50;;
27402;SDS011;14862;49.494;8.530;2023-05-10T02:18:13;3.33;;;1.77;;
27402;SDS011;14862;49.494;8.530;2023-05-10T02:20:40;2.80;;;1.60;;
27402;SDS011;14862;49.494;8.530;2023-05-10T02:23:06;3.83;;;1.60;;
27402;SDS011;14862;49.494;8.530;2023-05-10T02:25:32;2.10;;;1.90;;
27402;SDS011;14862;49.494;8.530;2023-05-10T02:27:57;2.55;;;1.40;;
27402;SDS011;14862;49.494;8.530;2023-05-10T02:30:24;2.13;;;1.80;;
27402;SDS011;14862;49.494;8.530;2023-05-10T02:32:50;3.72;;;1.95;;
27402;SDS011;14862;49.494;8.530;2023-05-10T02:35:16;2.92;;;1.80;;
27402;SDS011;14862;49.494;8.530;2023-05-10T02:37:42;2.15;;;1.88;;
27402;SDS011;14862;49.494;8.530;2023-05-10T02:40:08;2.40;;;2.20;;
27402;SDS011;14862;49.494;8.530;2023-05-10T02:42:36;3.75;;;2.05;;
27402;SDS011;14862;49.494;8.530;2023-05-10T02:45:03;2.10;;;1.88;;
27402;SDS011;14862;49.494;8.530;2023-05-10T02:47:29;1.90;;;1.80;;
27402;SDS011;14862;49.494;8.530;2023-05-10T02:49:54;4.00;;;2.10;;
27402;SDS011;14862;49.494;8.530;2023-05-10T02:52:21;2.40;;;1.75;;
27402;SDS011;14862;49.494;8.530;2023-05-10T02:54:48;2.67;;;2.13;;
27402;SDS011;14862;49.494;8.530;2023-05-10T02:57:20;4.15;;;2.10;;
27402;SDS011;14862;49.494;8.530;2023-05-10T02:59:48;3.70;;;2.07;;
27402;SDS011;14862;49.494;8.530;2023-05-10T03:02:13;2.35;;;2.15;;
27402;SDS011;14862;49.494;8.530;2023-05-10T03:04:38;2.15;;;2.03;;
27402;SDS011;14862;49.494;8.530;2023-05-10T03:07:04;3.67;;;2.17;;
27402;SDS011;14862;49.494;8.530;2023-05-10T03:09:30;2.17;;;1.98;;
27402;SDS011;14862;49.494;8.530;2023-05-10T03:11:56;3.97;;;2.67;;
27402;SDS011;14862;49.494;8.530;2023-05-10T03:16:57;3.50;;;2.40;;
27402;SDS011;14862;49.494;8.530;2023-05-10T03:19:46;3.28;;;2.30;;
27402;SDS011;14862;49.494;8.530;2023-05-10T03:22:12;6.13;;;2.90;;
27402;SDS011;14862;49.494;8.530;2023-05-10T03:24:39;5.72;;;2.80;;
27402;SDS011;14862;49.494;8.530;2023-05-10T03:27:06;3.17;;;2.80;;
27402;SDS011;14862;49.494;8.530;2023-05-10T03:29:32;5.85;;;2.95;;
27402;SDS011;14862;49.494;8.530;2023-05-10T03:31:58;3.75;;;2.67;;
27402;SDS011;14862;49.494;8.530;2023-05-10T03:34:24;2.70;;;2.50;;
27402;SDS011;14862;49.494;8.530;2023-05-10T03:36:49;3.92;;;3.05;;
27402;SDS011;14862;49.494;8.530;2023-05-10T03:39:15;5.55;;;3.38;;
27402;SDS011;14862;49.494;8.530;2023-05-10T03:41:40;5.70;;;3.10;;
27402;SDS011;14862;49.494;8.530;2023-05-10T03:44:05;3.57;;;3.23;;
27402;SDS011;14862;49.494;8.530;2023-05-10T03:46:30;3.40;;;3.10;;
27402;SDS011;14862;49.494;8.530;2023-05-10T03:48:55;3.60;;;3.30;;
27402;SDS011;14862;49.494;8.530;2023-05-10T03:51:21;4.20;;;3.70;;
27402;SDS011;14862;49.494;8.530;2023-05-10T03:53:47;4.07;;;3.22;;
27402;SDS011;14862;49.494;8.530;2023-05-10T03:56:12;3.42;;;3.13;;
27402;SDS011;14862;49.494;8.530;2023-05-10T03:58:37;4.68;;;3.75;;
27402;SDS011;14862;49.494;8.530;2023-05-10T04:01:02;8.02;;;4.15;;
27402;SDS011;14862;49.494;8.530;2023-05-10T04:03:27;6.50;;;3.80;;
27402;SDS011;14862;49.494;8.530;2023-05-10T04:06:00;5.32;;;4.10;;
27402;SDS011;14862;49.494;8.530;2023-05-10T04:08:26;6.60;;;3.95;;
27402;SDS011;14862;49.494;8.530;2023-05-10T04:10:51;4.10;;;3.70;;
27402;SDS011;14862;49.494;8.530;2023-05-10T04:13:16;5.45;;;3.70;;
27402;SDS011;14862;49.494;8.530;2023-05-10T04:15:41;6.50;;;4.57;;
27402;SDS011;14862;49.494;8.530;2023-05-10T04:18:07;4.80;;;3.53;;
27402;SDS011;14862;49.494;8.530;2023-05-10T04:20:32;4.27;;;3.83;;
27402;SDS011;14862;49.494;8.530;2023-05-10T04:22:57;3.83;;;3.35;;
27402;SDS011;14862;49.494;8.530;2023-05-10T04:25:22;5.50;;;3.67;;
27402;SDS011;14862;49.494;8.530;2023-05-10T04:27:47;4.93;;;3.73;;
27402;SDS011;14862;49.494;8.530;2023-05-10T04:30:13;4.93;;;3.87;;
27402;SDS011;14862;49.494;8.530;2023-05-10T04:32:38;3.50;;;2.90;;
27402;SDS011;14862;49.494;8.530;2023-05-10T04:35:03;5.20;;;3.70;;
27402;SDS011;14862;49.494;8.530;2023-05-10T04:37:29;4.93;;;3.92;;
27402;SDS011;14862;49.494;8.530;2023-05-10T04:39:54;4.18;;;3.50;;
27402;SDS011;14862;49.494;8.530;2023-05-10T04:42:20;4.40;;;3.33;;
27402;SDS011;14862;49.494;8.530;2023-05-10T04:44:45;6.50;;;4.23;;
27402;SDS011;14862;49.494;8.530;2023-05-10T04:47:10;5.10;;;3.40;;
27402;SDS011;14862;49.494;8.530;2023-05-10T04:49:36;4.10;;;3.30;;
27402;SDS011;14862;49.494;8.530;2023-05-10T04:52:01;9.02;;;3.30;;
27402;SDS011;14862;49.494;8.530;2023-05-10T04:54:27;4.95;;;3.67;;
27402;SDS011;14862;49.494;8.530;2023-05-10T04:56:52;4.43;;;3.92;;
27402;SDS011;14862;49.494;8.530;2023-05-10T04:59:17;5.23;;;4.33;;
27402;SDS011;14862;49.494;8.530;2023-05-10T05:01:46;6.97;;;4.20;;
27402;SDS011;14862;49.494;8.530;2023-05-10T05:04:11;5.50;;;4.22;;
27402;SDS011;14862;49.494;8.530;2023-05-10T05:06:36;6.70;;;5.05;;
27402;SDS011;14862;49.494;8.530;2023-05-10T05:09:01;6.17;;;4.27;;
27402;SDS011;14862;49.494;8.530;2023-05-10T05:11:26;4.55;;;4.15;;
27402;SDS011;14862;49.494;8.530;2023-05-10T05:13:52;6.13;;;4.60;;
27402;SDS011;14862;49.494;8.530;2023-05-10T05:16:17;6.97;;;4.10;;
27402;SDS011;14862;49.494;8.530;2023-05-10T05:18:42;6.50;;;4.30;;
27402;SDS011;14862;49.494;8.530;2023-05-10T05:21:14;10.32;;;4.20;;
27402;SDS011;14862;49.494;8.530;2023-05-10T05:23:40;5.65;;;4.15;;
27402;SDS011;14862;49.494;8.530;2023-05-10T05:26:05;3.83;;;3.42;;
27402;SDS011;14862;49.494;8.530;2023-05-10T05:28:30;3.43;;;3.13;;
27402;SDS011;14862;49.494;8.530;2023-05-10T05:30:57;5.55;;;4.15;;
27402;SDS011;14862;49.494;8.530;2023-05-10T05:33:23;4.63;;;3.50;;
27402;SDS011;14862;49.494;8.530;2023-05-10T05:35:48;7.75;;;3.65;;
27402;SDS011;14862;49.494;8.530;2023-05-10T05:38:15;6.47;;;3.63;;
27402;SDS011;14862;49.494;8.530;2023-05-10T05:40:41;7.78;;;3.28;;
27402;SDS011;14862;49.494;8.530;2023-05-10T05:43:06;5.13;;;3.35;;
27402;SDS011;14862;49.494;8.530;2023-05-10T05:45:31;4.87;;;3.37;;
27402;SDS011;14862;49.494;8.530;2023-05-10T05:47:56;3.88;;;2.80;;
27402;SDS011;14862;49.494;8.530;2023-05-10T05:50:22;4.88;;;3.63;;
27402;SDS011;14862;49.494;8.530;2023-05-10T05:52:47;4.10;;;3.72;;
27402;SDS011;14862;49.494;8.530;2023-05-10T05:55:12;3.40;;;3.10;;
27402;SDS011;14862;49.494;8.530;2023-05-10T05:57:37;5.35;;;3.78;;
27402;SDS011;14862;49.494;8.530;2023-05-10T06:00:03;6.20;;;4.35;;
27402;SDS011;14862;49.494;8.530;2023-05-10T06:02:29;5.85;;;3.53;;
27402;SDS011;14862;49.494;8.530;2023-05-10T06:04:54;4.72;;;4.20;;
27402;SDS011;14862;49.494;8.530;2023-05-10T06:07:19;7.43;;;5.00;;
27402;SDS011;14862;49.494;8.530;2023-05-10T06:09:45;5.85;;;4.18;;
27402;SDS011;14862;49.494;8.530;2023-05-10T06:12:10;5.63;;;4.28;;
27402;SDS011;14862;49.494;8.530;2023-05-10T06:14:36;7.43;;;4.65;;
27402;SDS011;14862;49.494;8.530;2023-05-10T06:17:01;7.40;;;5.07;;
27402;SDS011;14862;49.494;8.530;2023-05-10T06:19:29;5.18;;;4.68;;
27402;SDS011;14862;49.494;8.530;2023-05-10T06:21:54;8.25;;;4.45;;
27402;SDS011;14862;49.494;8.530;2023-05-10T06:24:19;7.90;;;4.72;;
27402;SDS011;14862;49.494;8.530;2023-05-10T06:26:44;5.45;;;4.47;;
27402;SDS011;14862;49.494;8.530;2023-05-10T06:29:10;5.43;;;4.00;;
27402;SDS011;14862;49.494;8.530;2023-05-10T06:31:35;7.73;;;4.70;;
27402;SDS011;14862;49.494;8.530;2023-05-10T06:34:00;5.88;;;4.63;;
27402;SDS011;14862;49.494;8.530;2023-05-10T06:36:25;7.80;;;4.40;;
27402;SDS011;14862;49.494;8.530;2023-05-10T06:38:52;5.07;;;4.43;;
27402;SDS011;14862;49.494;8.530;2023-05-10T06:41:17;5.22;;;4.43;;
27402;SDS011;14862;49.494;8.530;2023-05-10T06:43:42;7.68;;;5.20;;
27402;SDS011;14862;49.494;8.530;2023-05-10T06:46:08;7.43;;;4.38;;
27402;SDS011;14862;49.494;8.530;2023-05-10T06:48:33;6.80;;;5.05;;
27402;SDS011;14862;49.494;8.530;2023-05-10T06:50:59;8.95;;;4.75;;
27402;SDS011;14862;49.494;8.530;2023-05-10T06:53:24;5.72;;;4.20;;
27402;SDS011;14862;49.494;8.530;2023-05-10T06:55:49;8.02;;;4.70;;
27402;SDS011;14862;49.494;8.530;2023-05-10T06:58:14;4.68;;;4.18;;
27402;SDS011;14862;49.494;8.530;2023-05-10T07:00:39;6.22;;;4.57;;
27402;SDS011;14862;49.494;8.530;2023-05-10T07:03:07;7.07;;;4.53;;
27402;SDS011;14862;49.494;8.530;2023-05-10T07:05:32;8.68;;;4.13;;
27402;SDS011;14862;49.494;8.530;2023-05-10T07:07:58;6.40;;;3.95;;
27402;SDS011;14862;49.494;8.530;2023-05-10T07:10:23;7.70;;;4.15;;
27402;SDS011;14862;49.494;8.530;2023-05-10T07:12:48;4.32;;;3.78;;
27402;SDS011;14862;49.494;8.530;2023-05-10T07:15:14;6.85;;;3.47;;
27402;SDS011;14862;49.494;8.530;2023-05-10T07:17:40;4.95;;;2.97;;
27402;SDS011;14862;49.494;8.530;2023-05-10T07:20:06;2.90;;;2.60;;
27402;SDS011;14862;49.494;8.530;2023-05-10T07:22:31;4.32;;;2.55;;
27402;SDS011;14862;49.494;8.530;2023-05-10T07:24:57;2.13;;;2.00;;
27402;SDS011;14862;49.494;8.530;2023-05-10T07:27:22;2.63;;;2.35;;
27402;SDS011;14862;49.494;8.530;2023-05-10T07:29:47;2.45;;;2.00;;
27402;SDS011;14862;49.494;8.530;2023-05-10T07:32:13;6.68;;;2.95;;
27402;SDS011;14862;49.494;8.530;2023-05-10T07:34:38;5.05;;;2.65;;
27402;SDS011;14862;49.494;8.530;2023-05-10T07:37:03;5.50;;;2.03;;
27402;SDS011;14862;49.494;8.530;2023-05-10T07:39:29;2.38;;;2.17;;
27402;SDS011;14862;49.494;8.530;2023-05-10T07:41:54;2.13;;;1.92;;
27402;SDS011;14862;49.494;8.530;2023-05-10T07:44:20;1.77;;;1.60;;
27402;SDS011;14862;49.494;8.530;2023-05-10T07:46:45;2.47;;;1.40;;
27402;SDS011;14862;49.494;8.530;2023-05-10T07:49:10;2.58;;;1.45;;
27402;SDS011;14862;49.494;8.530;2023-05-10T07:51:35;2.92;;;1.35;;
27402;SDS011;14862;49.494;8.530;2023-05-10T07:54:01;2.72;;;1.30;;
27402;SDS011;14862;49.494;8.530;2023-05-10T07:56:28;1.58;;;1.25;;
27402;SDS011;14862;49.494;8.530;2023-05-10T07:59:01;2.20;;;1.80;;
27402;SDS011;14862;49.494;8.530;2023-05-10T08:03:53;1.48;;;1.27;;
27402;SDS011;14862;49.494;8.530;2023-05-10T08:06:19;3.72;;;1.30;;
27402;SDS011;14862;49.494;8.530;2023-05-10T08:08:48;1.85;;;1.30;;
27402;SDS011;14862;49.494;8.530;2023-05-10T08:11:18;1.63;;;1.33;;
27402;SDS011;14862;49.494;8.530;2023-05-10T08:13:46;2.28;;;1.52;;
27402;SDS011;14862;49.494;8.530;2023-05-10T08:16:12;1.42;;;1.33;;
27402;SDS011;14862;49.494;8.530;2023-05-10T08:18:38;1.40;;;1.30;;
27402;SDS011;14862;49.494;8.530;2023-05-10T08:21:03;2.60;;;1.30;;
27402;SDS011;14862;49.494;8.530;2023-05-10T08:23:28;4.53;;;1.70;;
27402;SDS011;14862;49.494;8.530;2023-05-10T08:25:54;2.85;;;1.60;;
27402;SDS011;14862;49.494;8.530;2023-05-10T08:28:19;1.50;;;1.40;;
27402;SDS011;14862;49.494;8.530;2023-05-10T08:30:44;2.00;;;1.20;;
27402;SDS011;14862;49.494;8.530;2023-05-10T08:33:09;1.98;;;1.60;;
27402;SDS011;14862;49.494;8.530;2023-05-10T08:35:35;2.25;;;1.63;;
27402;SDS011;14862;49.494;8.530;2023-05-10T08:38:00;2.33;;;1.45;;
27402;SDS011;14862;49.494;8.530;2023-05-10T08:40:26;5.45;;;1.40;;
27402;SDS011;14862;49.494;8.530;2023-05-10T08:42:55;3.10;;;1.60;;
27402;SDS011;14862;49.494;8.530;2023-05-10T08:45:23;2.60;;;1.20;;
27402;SDS011;14862;49.494;8.530;2023-05-10T08:47:49;3.85;;;1.42;;
27402;SDS011;14862;49.494;8.530;2023-05-10T08:50:15;2.22;;;1.35;;
27402;SDS011;14862;49.494;8.530;2023-05-10T08:52:42;1.55;;;1.45;;
27402;SDS011;14862;49.494;8.530;2023-05-10T08:55:07;2.92;;;1.35;;
27402;SDS011;14862;49.494;8.530;2023-05-10T08:57:33;2.88;;;1.20;;
27402;SDS011;14862;49.494;8.530;2023-05-10T08:59:59;1.95;;;1.40;;
27402;SDS011;14862;49.494;8.530;2023-05-10T09:02:25;3.17;;;1.77;;
27402;SDS011;14862;49.494;8.530;2023-05-10T09:04:51;4.25;;;1.42;;
27402;SDS011;14862;49.494;8.530;2023-05-10T09:07:16;1.88;;;1.40;;
27402;SDS011;14862;49.494;8.530;2023-05-10T09:09:42;2.53;;;1.40;;
27402;SDS011;14862;49.494;8.530;2023-05-10T09:12:07;6.20;;;1.65;;
27402;SDS011;14862;49.494;8.530;2023-05-10T09:14:35;3.10;;;1.20;;
27402;SDS011;14862;49.494;8.530;2023-05-10T09:17:01;4.70;;;1.50;;
27402;SDS011;14862;49.494;8.530;2023-05-10T09:19:27;2.15;;;1.20;;
27402;SDS011;14862;49.494;8.530;2023-05-10T09:21:52;2.55;;;1.70;;
27402;SDS011;14862;49.494;8.530;2023-05-10T09:24:18;3.83;;;1.43;;
27402;SDS011;14862;49.494;8.530;2023-05-10T09:26:46;3.00;;;1.60;;
27402;SDS011;14862;49.494;8.530;2023-05-10T09:29:13;3.45;;;1.58;;
27402;SDS011;14862;49.494;8.530;2023-05-10T09:31:46;3.22;;;1.58;;
27402;SDS011;14862;49.494;8.530;2023-05-10T09:34:15;3.25;;;1.50;;
27402;SDS011;14862;49.494;8.530;2023-05-10T09:36:50;3.03;;;1.45;;
27402;SDS011;14862;49.494;8.530;2023-05-10T09:39:16;3.15;;;1.60;;
27402;SDS011;14862;49.494;8.530;2023-05-10T09:41:41;4.40;;;1.40;;
27402;SDS011;14862;49.494;8.530;2023-05-10T09:44:07;2.35;;;1.42;;
27402;SDS011;14862;49.494;8.530;2023-05-10T09:46:34;7.57;;;1.97;;
27402;SDS011;14862;49.494;8.530;2023-05-10T09:49:00;1.98;;;1.27;;
27402;SDS011;14862;49.494;8.530;2023-05-10T09:51:26;2.67;;;1.20;;
27402;SDS011;14862;49.494;8.530;2023-05-10T09:56:35;2.75;;;1.40;;
27402;SDS011;14862;49.494;8.530;2023-05-10T09:59:02;4.07;;;1.70;;
27402;SDS011;14862;49.494;8.530;2023-05-10T10:01:28;1.15;;;1.05;;
27402;SDS011;14862;49.494;8.530;2023-05-10T10:03:53;1.75;;;1.25;;
27402;SDS011;14862;49.494;8.530;2023-05-10T10:06:19;2.17;;;1.50;;
27402;SDS011;14862;49.494;8.530;2023-05-10T10:08:44;8.80;;;1.45;;
27402;SDS011;14862;49.494;8.530;2023-05-10T10:11:09;4.30;;;1.73;;
27402;SDS011;14862;49.494;8.530;2023-05-10T10:13:35;1.95;;;1.30;;
27402;SDS011;14862;49.494;8.530;2023-05-10T10:16:00;4.00;;;1.88;;
27402;SDS011;14862;49.494;8.530;2023-05-10T10:18:26;2.42;;;1.15;;
27402;SDS011;14862;49.494;8.530;2023-05-10T10:20:52;1.25;;;1.08;;
27402;SDS011;14862;49.494;8.530;2023-05-10T10:23:17;3.40;;;1.33;;
27402;SDS011;14862;49.494;8.530;2023-05-10T10:25:43;3.58;;;1.60;;
27402;SDS011;14862;49.494;8.530;2023-05-10T10:28:24;4.22;;;1.70;;
27402;SDS011;14862;49.494;8.530;2023-05-10T10:30:51;3.30;;;1.77;;
27402;SDS011;14862;49.494;8.530;2023-05-10T10:36:02;6.18;;;1.80;;
27402;SDS011;14862;49.494;8.530;2023-05-10T10:41:27;3.80;;;1.80;;
27402;SDS011;14862;49.494;8.530;2023-05-10T10:46:51;3.72;;;2.38;;
27402;SDS011;14862;49.494;8.530;2023-05-10T10:49:22;3.50;;;1.80;;
27402;SDS011;14862;49.494;8.530;2023-05-10T10:54:32;2.00;;;1.55;;
27402;SDS011;14862;49.494;8.530;2023-05-10T10:57:10;3.13;;;1.73;;
27402;SDS011;14862;49.494;8.530;2023-05-10T10:59:35;2.17;;;1.30;;
27402;SDS011;14862;49.494;8.530;2023-05-10T11:02:01;2.65;;;1.20;;
27402;SDS011;14862;49.494;8.530;2023-05-10T11:04:27;2.65;;;1.33;;
27402;SDS011;14862;49.494;8.530;2023-05-10T11:06:52;3.28;;;1.42;;
27402;SDS011;14862;49.494;8.530;2023-05-10T11:09:41;2.95;;;1.40;;
27402;SDS011;14862;49.494;8.530;2023-05-10T11:12:08;3.78;;;1.20;;
27402;SDS011;14862;49.494;8.530;2023-05-10T11:14:33;1.15;;;1.00;;
27402;SDS011;14862;49.494;8.530;2023-05-10T11:16:58;1.70;;;0.90;;
27402;SDS011;14862;49.494;8.530;2023-05-10T11:19:23;1.42;;;0.90;;
27402;SDS011;14862;49.494;8.530;2023-05-10T11:22:13;1.58;;;1.08;;
27402;SDS011;14862;49.494;8.530;2023-05-10T11:24:40;1.08;;;1.00;;
27402;SDS011;14862;49.494;8.530;2023-05-10T11:27:20;0.70;;;0.68;;
27402;SDS011;14862;49.494;8.530;2023-05-10T11:29:46;3.80;;;0.82;;
27402;SDS011;14862;49.494;8.530;2023-05-10T11:32:11;1.53;;;0.80;;
27402;SDS011;14862;49.494;8.530;2023-05-10T11:34:38;3.38;;;1.02;;
27402;SDS011;14862;49.494;8.530;2023-05-10T11:37:03;1.83;;;0.73;;
27402;SDS011;14862;49.494;8.530;2023-05-10T11:39:29;0.93;;;0.82;;
27402;SDS011;14862;49.494;8.530;2023-05-10T11:41:54;4.15;;;1.10;;
27402;SDS011;14862;49.494;8.530;2023-05-10T11:44:20;3.42;;;0.90;;
27402;SDS011;14862;49.494;8.530;2023-05-10T11:46:45;1.40;;;0.82;;
27402;SDS011;14862;49.494;8.530;2023-05-10T11:49:10;2.10;;;0.80;;
27402;SDS011;14862;49.494;8.530;2023-05-10T11:51:36;3.72;;;0.85;;
27402;SDS011;14862;49.494;8.530;2023-05-10T11:54:04;2.38;;;1.15;;
27402;SDS011;14862;49.494;8.530;2023-05-10T11:56:31;1.63;;;0.90;;
27402;SDS011;14862;49.494;8.530;2023-05-10T11:58:57;4.78;;;1.00;;
27402;SDS011;14862;49.494;8.530;2023-05-10T12:01:23;4.18;;;1.20;;
27402;SDS011;14862;49.494;8.530;2023-05-10T12:03:49;3.60;;;1.27;;
27402;SDS011;14862;49.494;8.530;2023-05-10T12:06:15;3.33;;;1.02;;
27402;SDS011;14862;49.494;8.530;2023-05-10T12:08:43;1.55;;;0.90;;
27402;SDS011;14862;49.494;8.530;2023-05-10T12:11:09;1.60;;;1.00;;
27402;SDS011;14862;49.494;8.530;2023-05-10T12:13:39;2.30;;;1.10;;
27402;SDS011;14862;49.494;8.530;2023-05-10T12:16:17;4.57;;;0.90;;
27402;SDS011;14862;49.494;8.530;2023-05-10T12:18:42;1.17;;;0.95;;
27402;SDS011;14862;49.494;8.530;2023-05-10T12:21:09;4.47;;;0.98;;
27402;SDS011;14862;49.494;8.530;2023-05-10T12:23:35;2.65;;;1.20;;
27402;SDS011;14862;49.494;8.530;2023-05-10T12:26:01;1.30;;;1.00;;
27402;SDS011;14862;49.494;8.530;2023-05-10T12:28:29;2.90;;;0.82;;
27402;SDS011;14862;49.494;8.530;2023-05-10T12:30:54;4.13;;;1.70;;
27402;SDS011;14862;49.494;8.530;2023-05-10T12:33:20;2.13;;;1.25;;
27402;SDS011;14862;49.494;8.530;2023-05-10T12:35:48;3.83;;;1.67;;
27402;SDS011;14862;49.494;8.530;2023-05-10T12:40:51;2.50;;;1.33;;
27402;SDS011;14862;49.494;8.530;2023-05-10T12:43:17;4.88;;;1.35;;
27402;SDS011;14862;49.494;8.530;2023-05-10T12:45:42;6.05;;;1.55;;
27402;SDS011;14862;49.494;8.530;2023-05-10T12:48:07;3.60;;;1.50;;
27402;SDS011;14862;49.494;8.530;2023-05-10T12:50:32;3.63;;;1.20;;
27402;SDS011;14862;49.494;8.530;2023-05-10T12:52:58;2.42;;;1.42;;
27402;SDS011;14862;49.494;8.530;2023-05-10T12:55:23;6.90;;;1.43;;
27402;SDS011;14862;49.494;8.530;2023-05-10T12:57:48;1.73;;;1.00;;
27402;SDS011;14862;49.494;8.530;2023-05-10T13:00:13;4.43;;;1.27;;
27402;SDS011;14862;49.494;8.530;2023-05-10T13:02:39;2.15;;;1.20;;
27402;SDS011;14862;49.494;8.530;2023-05-10T13:05:04;4.85;;;1.55;;
27402;SDS011;14862;49.494;8.530;2023-05-10T13:07:30;1.85;;;1.00;;
27402;SDS011;14862;49.494;8.530;2023-05-10T13:09:55;4.38;;;0.88;;
27402;SDS011;14862;49.494;8.530;2023-05-10T13:12:21;6.03;;;1.80;;
27402;SDS011;14862;49.494;8.530;2023-05-10T13:14:46;4.57;;;1.30;;
27402;SDS011;14862;49.494;8.530;2023-05-10T13:17:11;4.40;;;1.38;;
27402;SDS011;14862;49.494;8.530;2023-05-10T13:19:37;2.70;;;1.20;;
27402;SDS011;14862;49.494;8.530;2023-05-10T13:22:02;2.13;;;1.00;;
27402;SDS011;14862;49.494;8.530;2023-05-10T13:24:27;1.63;;;1.00;;
27402;SDS011;14862;49.494;8.530;2023-05-10T13:26:53;1.10;;;0.82;;
27402;SDS011;14862;49.494;8.530;2023-05-10T13:29:18;5.53;;;1.35;;
27402;SDS011;14862;49.494;8.530;2023-05-10T13:31:44;3.15;;;1.30;;
27402;SDS011;14862;49.494;8.530;2023-05-10T13:34:09;2.65;;;1.20;;
27402;SDS011;14862;49.494;8.530;2023-05-10T13:36:34;0.82;;;0.82;;
27402;SDS011;14862;49.494;8.530;2023-05-10T13:38:59;2.50;;;0.98;;
27402;SDS011;14862;49.494;8.530;2023-05-10T13:41:27;3.05;;;1.10;;
27402;SDS011;14862;49.494;8.530;2023-05-10T13:43:52;3.00;;;1.00;;
27402;SDS011;14862;49.494;8.530;2023-05-10T13:46:18;6.28;;;0.90;;
27402;SDS011;14862;49.494;8.530;2023-05-10T13:48:44;6.55;;;1.08;;
27402;SDS011;14862;49.494;8.530;2023-05-10T13:51:09;6.10;;;0.98;;
27402;SDS011;14862;49.494;8.530;2023-05-10T13:53:34;1.83;;;0.93;;
27402;SDS011;14862;49.494;8.530;2023-05-10T13:56:00;1.55;;;0.85;;
27402;SDS011;14862;49.494;8.530;2023-05-10T13:58:25;1.98;;;0.85;;
27402;SDS011;14862;49.494;8.530;2023-05-10T14:00:50;1.10;;;1.00;;
27402;SDS011;14862;49.494;8.530;2023-05-10T14:03:15;4.60;;;1.60;;
27402;SDS011;14862;49.494;8.530;2023-05-10T14:05:41;4.75;;;1.10;;
27402;SDS011;14862;49.494;8.530;2023-05-10T14:08:07;1.05;;;0.70;;
27402;SDS011;14862;49.494;8.530;2023-05-10T14:10:34;2.88;;;0.90;;
27402;SDS011;14862;49.494;8.530;2023-05-10T14:12:59;3.10;;;1.20;;
27402;SDS011;14862;49.494;8.530;2023-05-10T14:15:24;4.20;;;1.17;;
27402;SDS011;14862;49.494;8.530;2023-05-10T14:17:50;3.13;;;0.73;;
27402;SDS011;14862;49.494;8.530;2023-05-10T14:20:15;1.73;;;0.63;;
27402;SDS011;14862;49.494;8.530;2023-05-10T14:22:40;3.20;;;0.95;;
27402;SDS011;14862;49.494;8.530;2023-05-10T14:25:05;3.70;;;1.03;;
27402;SDS011;14862;49.494;8.530;2023-05-10T14:27:31;3.97;;;1.50;;
27402;SDS011;14862;49.494;8.530;2023-05-10T14:29:57;3.28;;;0.95;;
27402;SDS011;14862;49.494;8.530;2023-05-10T14:32:22;1.17;;;0.73;;
27402;SDS011;14862;49.494;8.530;2023-05-10T14:34:47;3.08;;;1.00;;
27402;SDS011;14862;49.494;8.530;2023-05-10T14:37:13;1.85;;;0.98;;
27402;SDS011;14862;49.494;8.530;2023-05-10T14:39:38;3.42;;;1.35;;
27402;SDS011;14862;49.494;8.530;2023-05-10T14:42:04;3.72;;;1.00;;
27402;SDS011;14862;49.494;8.530;2023-05-10T14:44:29;1.73;;;0.70;;
27402;SDS011;14862;49.494;8.530;2023-05-10T14:46:55;2.58;;;0.88;;
27402;SDS011;14862;49.494;8.530;2023-05-10T14:49:21;4.60;;;1.55;;
27402;SDS011;14862;49.494;8.530;2023-05-10T14:51:49;2.05;;;0.80;;
27402;SDS011;14862;49.494;8.530;2023-05-10T14:54:15;4.40;;;1.05;;
27402;SDS011;14862;49.494;8.530;2023-05-10T14:56:40;2.85;;;0.80;;
27402;SDS011;14862;49.494;8.530;2023-05-10T14:59:06;1.63;;;0.70;;
27402;SDS011;14862;49.494;8.530;2023-05-10T15:01:31;1.95;;;0.75;;
27402;SDS011;14862;49.494;8.530;2023-05-10T15:03:57;3.88;;;1.08;;
27402;SDS011;14862;49.494;8.530;2023-05-10T15:06:23;2.00;;;0.67;;
27402;SDS011;14862;49.494;8.530;2023-05-10T15:08:50;1.83;;;0.93;;
27402;SDS011;14862;49.494;8.530;2023-05-10T15:11:15;4.45;;;0.73;;
27402;SDS011;14862;49.494;8.530;2023-05-10T15:13:40;1.13;;;0.70;;
27402;SDS011;14862;49.494;8.530;2023-05-10T15:16:05;2.45;;;0.80;;
27402;SDS011;14862;49.494;8.530;2023-05-10T15:18:31;2.05;;;0.98;;
27402;SDS011;14862;49.494;8.530;2023-05-10T15:20:56;1.03;;;0.77;;
27402;SDS011;14862;49.494;8.530;2023-05-10T15:23:23;1.05;;;0.60;;
27402;SDS011;14862;49.494;8.530;2023-05-10T15:25:48;1.88;;;0.70;;
27402;SDS011;14862;49.494;8.530;2023-05-10T15:28:17;5.03;;;0.80;;